createdAt,value
2022-10-15T00:04:33.672Z,0.40
2022-10-15T00:09:38.552Z,0.57
2022-10-15T00:14:42.210Z,0.60
2022-10-15T00:19:45.795Z,0.60
2022-10-15T00:24:50.785Z,0.57
2022-10-15T00:29:54.296Z,0.60
2022-10-15T00:34:57.881Z,0.60
2022-10-15T00:45:14.054Z,0.47
2022-10-15T00:50:21.071Z,0.70
2022-10-15T00:55:29.536Z,0.60
2022-10-15T01:00:34.369Z,0.60
2022-10-15T01:05:39.663Z,0.50
2022-10-15T01:10:56.578Z,0.50
2022-10-15T01:16:09.554Z,0.60
2022-10-15T01:21:21.084Z,0.50
2022-10-15T01:27:10.209Z,0.57
2022-10-15T01:32:24.642Z,0.60
2022-10-15T01:37:37.730Z,0.67
2022-10-15T01:42:48.587Z,0.50
2022-10-15T01:47:57.043Z,0.50
2022-10-15T01:53:03.252Z,0.60
2022-10-15T01:58:08.059Z,0.60
2022-10-15T02:03:14.324Z,0.70
2022-10-15T02:08:25.120Z,0.60
2022-10-15T02:13:37.871Z,0.60
2022-10-15T02:18:48.329Z,0.60
2022-10-15T02:23:57.787Z,0.70
2022-10-15T02:29:03.309Z,0.70
2022-10-15T02:34:10.260Z,0.43
2022-10-15T02:39:17.109Z,0.73
2022-10-15T02:44:21.143Z,0.80
2022-10-15T02:49:26.178Z,0.80
2022-10-15T02:54:29.750Z,0.70
2022-10-15T02:59:33.268Z,0.83
2022-10-15T03:04:39.257Z,0.80
2022-10-15T03:09:43.210Z,1.10
2022-10-15T03:14:46.915Z,0.97
2022-10-15T03:19:53.023Z,1.10
2022-10-15T03:24:57.314Z,1.20
2022-10-15T03:30:03.914Z,1.10
2022-10-15T03:35:11.634Z,1.07
2022-10-15T03:40:15.668Z,1.00
2022-10-15T03:45:21.328Z,1.10
2022-10-15T03:50:34.823Z,0.90
2022-10-15T03:55:39.648Z,1.03
2022-10-15T04:00:43.895Z,1.13
2022-10-15T04:05:54.174Z,0.93
2022-10-15T04:11:01.905Z,0.90
2022-10-15T04:16:07.045Z,0.90
2022-10-15T04:21:12.137Z,0.97
2022-10-15T04:26:18.372Z,0.80
2022-10-15T04:31:22.417Z,1.00
2022-10-15T04:36:27.952Z,1.00
2022-10-15T04:41:36.829Z,1.10
2022-10-15T04:46:46.798Z,1.07
2022-10-15T04:52:09.518Z,1.00
2022-10-15T04:57:29.882Z,0.90
2022-10-15T05:02:34.056Z,1.00
2022-10-15T05:08:06.565Z,0.73
2022-10-15T05:13:24.930Z,0.80
2022-10-15T05:18:28.695Z,0.80
2022-10-15T05:23:33.752Z,0.60
2022-10-15T05:29:15.939Z,0.90
2022-10-15T05:34:19.923Z,0.70
2022-10-15T05:39:31.058Z,0.60
2022-10-15T05:44:35.892Z,0.90
2022-10-15T05:49:39.473Z,0.63
2022-10-15T05:54:52.702Z,0.70
2022-10-15T05:59:56.213Z,0.80
2022-10-15T06:05:00.193Z,0.80
2022-10-15T06:10:05.622Z,0.63
2022-10-15T06:15:11.875Z,0.67
2022-10-15T06:20:15.476Z,0.60
2022-10-15T06:25:20.380Z,0.63
2022-10-15T06:30:23.979Z,0.60
2022-10-15T06:35:30.255Z,0.47
2022-10-15T06:40:35.137Z,0.33
2022-10-15T06:45:40.505Z,0.40
2022-10-15T06:50:51.634Z,0.50
2022-10-15T06:55:59.169Z,0.57
2022-10-15T07:01:03.455Z,0.70
2022-10-15T07:06:08.739Z,0.50
2022-10-15T07:11:13.672Z,0.50
2022-10-15T07:16:17.243Z,0.50
2022-10-15T07:21:20.767Z,0.47
2022-10-15T07:26:25.737Z,0.60
2022-10-15T07:31:34.713Z,0.50
2022-10-15T07:36:38.443Z,0.50
2022-10-15T07:41:43.279Z,0.60
2022-10-15T07:46:48.741Z,0.47
2022-10-15T07:51:52.313Z,0.40
2022-10-15T07:56:57.201Z,0.60
2022-10-15T08:02:00.785Z,0.50
2022-10-15T08:07:06.818Z,0.53
2022-10-15T08:12:14.446Z,0.50
2022-10-15T08:17:17.966Z,0.37
2022-10-15T08:22:21.879Z,0.33
2022-10-15T08:27:27.634Z,0.40
2022-10-15T08:32:33.845Z,0.40
2022-10-15T08:37:37.420Z,0.50
2022-10-15T08:42:44.925Z,0.40
2022-10-15T08:47:52.355Z,0.40
2022-10-15T08:52:59.340Z,0.30
2022-10-15T08:58:13.797Z,0.30
2022-10-15T09:03:31.456Z,0.40
2022-10-15T09:08:42.238Z,0.30
2022-10-15T09:13:49.343Z,0.30
2022-10-15T09:19:03.139Z,0.20
2022-10-15T09:24:07.374Z,0.27
2022-10-15T09:29:19.034Z,0.40
2022-10-15T09:34:28.869Z,0.30
2022-10-15T09:39:53.396Z,0.40
2022-10-15T09:45:00.577Z,0.37
2022-10-15T09:50:05.479Z,0.30
2022-10-15T09:55:19.296Z,0.40
2022-10-15T10:00:24.185Z,0.40
2022-10-15T10:05:30.396Z,0.40
2022-10-15T10:10:36.568Z,0.20
2022-10-15T10:15:44.555Z,0.30
2022-10-15T10:20:58.743Z,0.40
2022-10-15T10:26:03.781Z,0.37
2022-10-15T10:31:10.326Z,0.40
2022-10-15T10:36:25.560Z,0.30
2022-10-15T10:41:50.292Z,0.53
2022-10-15T10:47:15.579Z,0.20
2022-10-15T10:52:24.950Z,0.40
2022-10-15T10:57:41.016Z,0.40
2022-10-15T11:02:46.033Z,0.40
2022-10-15T11:07:54.559Z,0.40
2022-10-15T11:18:42.709Z,0.50
2022-10-15T11:24:02.154Z,0.30
2022-10-15T11:29:16.931Z,0.30
2022-10-15T11:34:46.804Z,0.40
2022-10-15T11:40:07.130Z,0.30
2022-10-15T11:45:51.077Z,0.30
2022-10-15T11:51:04.227Z,0.30
2022-10-15T11:56:15.644Z,0.20
2022-10-15T12:01:25.152Z,0.20
2022-10-15T12:06:36.275Z,0.20
2022-10-15T12:11:46.743Z,0.20
2022-10-15T12:16:59.914Z,0.27
2022-10-15T12:22:11.306Z,0.20
2022-10-15T12:27:17.369Z,0.20
2022-10-15T12:32:25.678Z,0.23
2022-10-15T12:37:34.456Z,0.47
2022-10-15T12:42:41.305Z,0.20
2022-10-15T12:47:49.756Z,0.20
2022-10-15T12:53:02.560Z,0.20
2022-10-15T12:58:28.268Z,0.20
2022-10-15T13:03:43.066Z,0.20
2022-10-15T13:08:51.456Z,0.30
2022-10-15T13:14:01.036Z,0.10
2022-10-15T13:19:05.677Z,0.20
2022-10-15T13:24:15.864Z,0.30
2022-10-15T13:29:21.984Z,0.30
2022-10-15T13:34:29.889Z,0.20
2022-10-15T13:39:38.316Z,0.20
2022-10-15T13:44:42.086Z,0.17
2022-10-15T13:49:45.662Z,0.10
2022-10-15T13:54:51.007Z,0.10
2022-10-15T13:59:54.957Z,0.10
2022-10-15T14:05:16.711Z,0.30
2022-10-15T14:10:22.008Z,0.20
2022-10-15T14:15:45.654Z,0.30
2022-10-15T14:20:50.055Z,0.10
2022-10-15T14:25:59.323Z,0.13
2022-10-15T14:31:03.633Z,0.10
2022-10-15T14:36:10.067Z,0.10
2022-10-15T14:41:29.497Z,0.10
2022-10-15T14:46:41.306Z,0.20
2022-10-15T14:51:44.903Z,0.20
2022-10-15T14:56:51.613Z,0.10
2022-10-15T15:02:01.650Z,0.17
2022-10-15T15:07:19.329Z,0.20
2022-10-15T16:24:24.808Z,0.20
2022-10-15T16:29:53.295Z,0.30
2022-10-15T16:35:20.499Z,0.20
2022-10-15T16:40:27.104Z,0.33
2022-10-15T16:45:33.777Z,0.30
2022-10-15T16:51:01.771Z,0.30
2022-10-15T16:56:33.956Z,0.20
2022-10-15T17:02:01.736Z,0.40
2022-10-15T17:07:29.669Z,0.30
2022-10-15T17:12:58.611Z,0.30
2022-10-15T17:18:04.106Z,0.33
2022-10-15T17:23:33.955Z,0.20
2022-10-15T17:29:04.442Z,0.33
2022-10-15T17:34:11.468Z,0.20
2022-10-15T17:39:41.626Z,0.23
2022-10-15T17:44:50.113Z,0.20
2022-10-15T17:50:19.617Z,0.17
2022-10-15T17:55:46.830Z,0.20
2022-10-15T18:01:28.013Z,0.23
2022-10-15T18:07:09.771Z,0.30
2022-10-15T18:12:14.261Z,0.30
2022-10-15T18:17:22.363Z,0.20
2022-10-15T18:22:27.167Z,0.30
2022-10-15T18:27:31.827Z,0.40
2022-10-15T18:33:06.860Z,0.20
2022-10-15T18:38:13.849Z,0.20
2022-10-15T18:43:41.758Z,0.10
2022-10-15T18:49:10.691Z,0.10
2022-10-15T18:54:38.749Z,0.20
2022-10-15T18:59:47.457Z,0.20
2022-10-15T19:04:53.460Z,0.20
2022-10-15T19:10:00.470Z,0.30
2022-10-15T19:15:29.486Z,0.23
2022-10-15T19:20:58.828Z,0.20
2022-10-15T19:26:26.816Z,0.37
2022-10-15T19:31:58.798Z,0.30
2022-10-15T19:37:07.443Z,0.43
2022-10-15T19:42:20.888Z,0.23
2022-10-15T19:47:28.451Z,0.40
2022-10-15T19:53:00.760Z,0.30
2022-10-15T19:58:08.265Z,0.50
2022-10-15T20:08:48.278Z,0.40
2022-10-15T20:13:53.815Z,0.30
2022-10-15T20:19:21.949Z,0.40
2022-10-15T20:24:50.884Z,0.43
2022-10-15T20:30:18.986Z,0.43
2022-10-15T20:35:46.804Z,0.60
2022-10-15T20:41:17.489Z,0.70
2022-10-15T20:46:47.586Z,0.63
2022-10-15T20:51:53.670Z,0.50
2022-10-15T20:57:23.777Z,0.40
2022-10-15T21:02:51.882Z,0.40
2022-10-15T21:08:22.701Z,0.37
2022-10-15T21:13:52.212Z,0.40
2022-10-15T21:19:20.042Z,0.30
2022-10-15T21:24:48.082Z,0.40
2022-10-15T21:29:54.314Z,0.33
2022-10-15T21:35:22.348Z,0.40
2022-10-15T21:40:27.357Z,0.43
2022-10-15T21:45:57.146Z,0.30
2022-10-15T21:51:26.800Z,0.40
2022-10-15T21:56:58.175Z,0.30
2022-10-15T22:02:04.496Z,0.40
2022-10-15T22:07:11.190Z,0.40
2022-10-15T22:12:38.994Z,0.40
2022-10-15T22:17:47.382Z,0.30
2022-10-15T22:23:15.469Z,0.30
2022-10-15T22:28:20.421Z,0.50
2022-10-15T22:33:49.963Z,0.60
2022-10-15T22:39:19.038Z,0.57
2022-10-15T22:44:47.009Z,0.60
2022-10-15T22:50:17.141Z,0.70
2022-10-15T22:55:55.113Z,0.77
2022-10-15T23:01:11.444Z,0.60
2022-10-15T23:06:41.365Z,0.40
2022-10-15T23:12:09.109Z,0.40
2022-10-15T23:17:37.235Z,0.40
2022-10-15T23:22:43.396Z,0.40
2022-10-15T23:28:11.918Z,0.33
2022-10-15T23:33:40.124Z,0.50
2022-10-15T23:39:08.909Z,0.60
2022-10-15T23:50:09.237Z,0.40
